Terminal Aerodrome Forecast
Issued by NWS Cleveland, OH

Home | Current Version | Previous Version | Graphics & Text | Print | Product List | Glossary Off
Versions: 1 2 3 4 5 6 7 8 9 10 11 12 13 14 15 16 17 18 19

000
FTUS41 KCLE 291700
TAFYNG
TAF
KYNG 291729Z 2918/3018 19014KT P6SM BKN020 OVC035
      TEMPO 2918/2919 2SM -FZRAPL BR OVC020
     FM292000 19015G21KT P6SM VCSH OVC050
      TEMPO 2922/2924 2SM -RASN OVC006
     FM300000 24013G23KT 2SM -SHSN OVC008
      TEMPO 3000/3003 3/4SM -SN BR OVC002
     FM300700 27012G22KT 3SM -SN BKN006 OVC012
     FM301200 29013G24KT 5SM -SHSN OVC010=

USA.gov is the U.S. government's official web portal to all federal, state and local government web resources and services.